Time;durP1;ratioP1;P1;durP2;ratioP2;P2;SDS_P1;SDS_P2;PMS_P1;PMS_P2;Temp;Humidity;BMP_temperature;BMP_pressure;BME280_temperature;BME280_humidity;BME280_pressure;Samples;Min_cycle;Max_cycle;Signal;HPM_P1;HPM_P2
2022/06/19 00:01:48;;;;;;;;;;;31.60;43.70;;;;;;5096497;28;1020;-36
2022/06/19 00:04:16;;;;;;;;;;;31.60;43.80;;;;;;5097280;28;979;-36
2022/06/19 00:06:43;;;;;;;;;;;31.50;43.90;;;;;;5097917;28;1002;-36
2022/06/19 00:09:10;;;;;;;;;;;31.60;43.70;;;;;;5097781;28;1009;-36
2022/06/19 00:11:39;;;;;;;;;;;31.60;43.70;;;;;;5097549;28;1008;-36
2022/06/19 00:14:06;;;;;;;;;;;31.60;43.60;;;;;;5096870;28;1018;-36
2022/06/19 00:16:33;;;;;;;;;;;31.50;44.00;;;;;;5097083;28;1021;-37
2022/06/19 00:19:00;;;;;;;;;;;31.40;44.20;;;;;;5097079;28;1980;-37
2022/06/19 00:21:28;;;;;;;;;;;31.30;44.40;;;;;;5097280;28;956;-37
2022/06/19 00:23:55;;;;;;;;;;;31.20;44.40;;;;;;5096844;28;1000;-37
2022/06/19 00:26:22;;;;;;;;;;;31.10;44.40;;;;;;5097192;28;1109;-37
2022/06/19 00:28:49;;;;;;;;;;;31.20;44.40;;;;;;5096527;28;928;-36
2022/06/19 00:31:15;;;;;;;;;;;31.10;44.20;;;;;;5095888;28;1403;-36
2022/06/19 00:33:42;;;;;;;;;;;31.00;44.30;;;;;;5095782;28;1086;-35
2022/06/19 00:36:09;;;;;;;;;;;31.10;44.40;;;;;;5095457;28;997;-41
2022/06/19 00:38:37;;;;;;;;;;;31.00;44.40;;;;;;5096180;28;999;-37
2022/06/19 00:41:04;;;;;;;;;;;30.90;44.70;;;;;;5096954;28;1974;-36
2022/06/19 00:43:31;;;;;;;;;;;30.90;44.70;;;;;;5096964;28;933;-37
2022/06/19 00:46:00;;;;;;;;;;;30.90;44.60;;;;;;5098024;28;996;-37
2022/06/19 00:48:30;;;;;;;;;;;30.90;44.50;;;;;;5097456;28;995;-36
2022/06/19 00:50:59;;;;;;;;;;;30.90;44.60;;;;;;5096767;28;940;-37
2022/06/19 00:53:29;;;;;;;;;;;30.80;44.80;;;;;;5096843;28;940;-36
2022/06/19 00:55:58;;;;;;;;;;;30.70;44.90;;;;;;5097094;28;1047;-36
2022/06/19 00:58:26;;;;;;;;;;;30.70;44.70;;;;;;5096728;28;965;-36
2022/06/19 01:00:55;;;;;;;;;;;30.70;44.80;;;;;;5097448;28;1986;-37
2022/06/19 01:03:24;;;;;;;;;;;30.80;44.60;;;;;;5097483;28;927;-36
2022/06/19 01:05:51;;;;;;;;;;;30.70;44.40;;;;;;5096532;28;975;-37
2022/06/19 01:08:18;;;;;;;;;;;30.70;44.50;;;;;;5095970;28;935;-36
2022/06/19 01:10:47;;;;;;;;;;;30.50;44.50;;;;;;5096932;28;981;-36
2022/06/19 01:13:15;;;;;;;;;;;30.50;44.70;;;;;;5095447;28;1024;-38
2022/06/19 01:15:42;;;;;;;;;;;30.40;44.90;;;;;;5095343;28;1000;-40
2022/06/19 01:18:10;;;;;;;;;;;30.30;44.80;;;;;;5095392;28;948;-36
2022/06/19 01:20:37;;;;;;;;;;;30.30;44.70;;;;;;5094926;28;1893;-37
2022/06/19 01:23:07;;;;;;;;;;;30.30;44.70;;;;;;5095040;28;972;-37
2022/06/19 01:25:36;;;;;;;;;;;30.30;44.90;;;;;;5095120;28;990;-36
2022/06/19 01:30:50;;;;;;;;;;;30.20;44.90;;;;;;5095781;28;888;-36
2022/06/19 01:33:20;;;;;;;;;;;30.20;45.10;;;;;;5096002;28;1042;-37
2022/06/19 01:35:48;;;;;;;;;;;30.10;45.10;;;;;;5095923;28;973;-36
2022/06/19 01:38:17;;;;;;;;;;;30.10;45.20;;;;;;5096016;28;1022;-37
2022/06/19 01:40:47;;;;;;;;;;;30.00;45.20;;;;;;5096270;28;1898;-36
2022/06/19 01:43:14;;;;;;;;;;;30.10;45.20;;;;;;5096413;28;1003;-37
2022/06/19 01:45:42;;;;;;;;;;;30.10;45.20;;;;;;5096082;28;1006;-37
2022/06/19 01:48:09;;;;;;;;;;;30.00;45.20;;;;;;5095827;28;943;-37
2022/06/19 01:50:36;;;;;;;;;;;30.00;45.20;;;;;;5096394;28;932;-37
2022/06/19 01:53:05;;;;;;;;;;;29.90;45.50;;;;;;5096762;28;963;-37
2022/06/19 01:55:33;;;;;;;;;;;29.90;45.50;;;;;;5097146;28;998;-37
2022/06/19 01:58:02;;;;;;;;;;;29.90;45.50;;;;;;5096231;28;924;-37
2022/06/19 02:00:31;;;;;;;;;;;29.90;45.50;;;;;;5096109;28;1902;-37
2022/06/19 02:03:01;;;;;;;;;;;29.90;45.70;;;;;;5098464;28;1058;-37
2022/06/19 02:05:28;;;;;;;;;;;30.00;45.30;;;;;;5101543;28;1030;-37
2022/06/19 02:07:55;;;;;;;;;;;30.10;45.20;;;;;;5100985;28;964;-37
2022/06/19 02:10:22;;;;;;;;;;;30.00;45.20;;;;;;5100716;28;964;-37
2022/06/19 02:12:50;;;;;;;;;;;29.90;45.40;;;;;;5100936;28;908;-37
2022/06/19 02:15:18;;;;;;;;;;;29.80;45.70;;;;;;5101548;28;928;-37
2022/06/19 02:17:49;;;;;;;;;;;29.70;45.80;;;;;;5100963;28;1001;-37
2022/06/19 02:20:15;;;;;;;;;;;29.70;46.10;;;;;;5101144;28;1901;-37
2022/06/19 02:22:42;;;;;;;;;;;29.60;46.10;;;;;;5101405;28;990;-37
2022/06/19 02:25:10;;;;;;;;;;;29.60;46.10;;;;;;5100586;28;936;-37
2022/06/19 02:27:38;;;;;;;;;;;29.60;46.20;;;;;;5101171;28;987;-37
2022/06/19 02:30:07;;;;;;;;;;;29.60;46.10;;;;;;5100738;28;996;-37
2022/06/19 02:32:38;;;;;;;;;;;29.50;46.40;;;;;;5100226;28;1322;-37
2022/06/19 02:35:05;;;;;;;;;;;29.60;46.40;;;;;;5100242;28;1023;-36
2022/06/19 02:37:33;;;;;;;;;;;29.60;46.20;;;;;;5100643;28;956;-36
2022/06/19 02:40:05;;;;;;;;;;;29.60;46.40;;;;;;5099575;28;1910;-36
2022/06/19 02:42:34;;;;;;;;;;;29.60;46.20;;;;;;5099591;28;944;-37
2022/06/19 02:45:02;;;;;;;;;;;29.60;46.00;;;;;;5099971;28;959;-36
2022/06/19 02:47:31;;;;;;;;;;;29.70;45.90;;;;;;5099886;28;986;-37
2022/06/19 02:49:59;;;;;;;;;;;29.70;45.90;;;;;;5100194;28;976;-37
2022/06/19 02:52:26;;;;;;;;;;;29.60;46.00;;;;;;5099124;28;1005;-37
2022/06/19 02:54:54;;;;;;;;;;;29.70;46.00;;;;;;5098775;28;913;-37
2022/06/19 02:57:20;;;;;;;;;;;29.70;45.90;;;;;;5099953;28;936;-37
2022/06/19 02:59:47;;;;;;;;;;;29.90;45.60;;;;;;5099270;28;1985;-36
2022/06/19 03:02:14;;;;;;;;;;;29.90;45.30;;;;;;5098928;28;988;-36
2022/06/19 03:04:43;;;;;;;;;;;30.10;45.20;;;;;;5099340;28;931;-37
2022/06/19 03:07:11;;;;;;;;;;;30.20;44.80;;;;;;5099951;28;972;-37
2022/06/19 03:09:38;;;;;;;;;;;30.20;44.50;;;;;;5099283;28;972;-37
2022/06/19 03:12:05;;;;;;;;;;;30.30;44.50;;;;;;5098900;28;1039;-36
2022/06/19 03:14:31;;;;;;;;;;;30.30;44.40;;;;;;5099437;28;999;-36
2022/06/19 03:16:58;;;;;;;;;;;30.30;44.40;;;;;;5099393;28;955;-37
2022/06/19 03:19:25;;;;;;;;;;;30.30;44.30;;;;;;5099068;28;971;-36
2022/06/19 03:21:52;;;;;;;;;;;30.40;44.20;;;;;;5099450;28;1913;-36
2022/06/19 03:24:20;;;;;;;;;;;30.50;44.00;;;;;;5098802;28;864;-37
2022/06/19 03:26:47;;;;;;;;;;;30.50;43.90;;;;;;5098398;28;1042;-36
2022/06/19 03:29:14;;;;;;;;;;;30.50;43.80;;;;;;5097828;28;1039;-36
2022/06/19 03:31:40;;;;;;;;;;;30.50;43.60;;;;;;5098315;28;976;-36
2022/06/19 03:34:07;;;;;;;;;;;30.60;43.50;;;;;;5097528;28;1097;-37
2022/06/19 03:36:34;;;;;;;;;;;30.60;44.50;;;;;;5098173;28;976;-36
2022/06/19 03:39:00;;;;;;;;;;;30.50;43.50;;;;;;5098771;28;1002;-36
2022/06/19 03:41:28;;;;;;;;;;;30.60;43.40;;;;;;5097850;28;1965;-37
2022/06/19 03:43:55;;;;;;;;;;;30.60;43.30;;;;;;5098184;28;885;-36
2022/06/19 03:46:22;;;;;;;;;;;30.50;43.30;;;;;;5097851;28;837;-36
2022/06/19 03:48:50;;;;;;;;;;;30.50;43.20;;;;;;5097737;28;998;-36
2022/06/19 03:51:17;;;;;;;;;;;30.50;43.40;;;;;;5098240;28;985;-36
2022/06/19 03:53:45;;;;;;;;;;;30.50;43.50;;;;;;5098591;28;1001;-36
2022/06/19 03:56:17;;;;;;;;;;;30.40;43.40;;;;;;5098339;28;1027;-36
2022/06/19 03:58:48;;;;;;;;;;;30.40;43.40;;;;;;5098377;28;1026;-36
2022/06/19 04:01:16;;;;;;;;;;;30.40;43.40;;;;;;5097435;28;1914;-36
2022/06/19 04:03:43;;;;;;;;;;;30.40;43.40;;;;;;5097724;28;963;-36
2022/06/19 04:06:10;;;;;;;;;;;30.40;43.30;;;;;;5097897;28;1003;-37
2022/06/19 04:08:37;;;;;;;;;;;30.30;43.20;;;;;;5098556;28;1008;-36
2022/06/19 04:11:04;;;;;;;;;;;30.40;43.20;;;;;;5097296;28;976;-46
2022/06/19 04:13:32;;;;;;;;;;;30.40;43.10;;;;;;5097407;28;1015;-36
2022/06/19 04:16:00;;;;;;;;;;;30.40;42.90;;;;;;5097912;28;1000;-37
2022/06/19 04:18:29;;;;;;;;;;;30.40;42.90;;;;;;5097402;28;984;-36
2022/06/19 04:20:55;;;;;;;;;;;30.40;42.90;;;;;;5097838;28;1909;-36
2022/06/19 04:23:22;;;;;;;;;;;30.50;42.90;;;;;;5097252;28;990;-35
2022/06/19 04:25:50;;;;;;;;;;;30.50;42.70;;;;;;5097437;28;1009;-36
2022/06/19 04:28:17;;;;;;;;;;;30.50;42.70;;;;;;5097034;28;1021;-35
2022/06/19 04:30:46;;;;;;;;;;;30.60;42.50;;;;;;5097328;28;896;-38
2022/06/19 04:33:16;;;;;;;;;;;30.50;42.30;;;;;;5097540;28;1436;-36
2022/06/19 04:35:43;;;;;;;;;;;30.60;42.00;;;;;;5097048;28;1011;-36
2022/06/19 04:38:10;;;;;;;;;;;30.50;41.70;;;;;;5097729;28;947;-35
2022/06/19 04:40:37;;;;;;;;;;;30.50;41.70;;;;;;5098069;28;1905;-36
2022/06/19 04:43:05;;;;;;;;;;;30.50;41.50;;;;;;5097102;28;992;-36
2022/06/19 04:45:31;;;;;;;;;;;30.50;41.90;;;;;;5097601;28;979;-35
2022/06/19 04:47:58;;;;;;;;;;;30.40;41.40;;;;;;5097508;28;1171;-35
2022/06/19 04:50:27;;;;;;;;;;;30.50;41.20;;;;;;5097690;28;943;-36
2022/06/19 04:52:53;;;;;;;;;;;30.40;41.40;;;;;;5097164;28;1277;-36
2022/06/19 04:55:21;;;;;;;;;;;30.40;41.00;;;;;;5097151;28;1911;-36
2022/06/19 04:57:47;;;;;;;;;;;30.40;41.30;;;;;;5097143;28;999;-36
2022/06/19 05:00:16;;;;;;;;;;;30.40;40.90;;;;;;5096748;28;1979;-36
2022/06/19 05:02:43;;;;;;;;;;;30.50;41.10;;;;;;5095986;28;1034;-36
2022/06/19 05:05:15;;;;;;;;;;;30.50;41.10;;;;;;5095815;28;996;-36
2022/06/19 05:07:43;;;;;;;;;;;30.50;41.00;;;;;;5097293;28;936;-36
2022/06/19 05:10:11;;;;;;;;;;;30.40;40.70;;;;;;5096546;28;956;-36
2022/06/19 05:12:37;;;;;;;;;;;30.50;41.10;;;;;;5097079;28;940;-37
2022/06/19 05:15:05;;;;;;;;;;;30.50;40.90;;;;;;5095959;28;955;-36
2022/06/19 05:17:32;;;;;;;;;;;30.50;40.70;;;;;;5096798;28;1180;-36
2022/06/19 05:19:59;;;;;;;;;;;30.50;40.70;;;;;;5097946;28;968;-36
2022/06/19 05:22:26;;;;;;;;;;;30.50;41.40;;;;;;5095697;28;1902;-36
2022/06/19 05:24:54;;;;;;;;;;;30.50;40.50;;;;;;5095623;28;944;-37
2022/06/19 05:27:21;;;;;;;;;;;30.60;40.90;;;;;;5097344;28;1105;-36
2022/06/19 05:29:48;;;;;;;;;;;30.60;40.10;;;;;;5097623;28;976;-36
2022/06/19 05:32:14;;;;;;;;;;;30.60;39.90;;;;;;5096324;28;1036;-36
2022/06/19 05:34:41;;;;;;;;;;;30.70;40.20;;;;;;5096375;28;1015;-36
2022/06/19 05:37:08;;;;;;;;;;;30.70;40.20;;;;;;5098147;28;1432;-37
2022/06/19 05:39:34;;;;;;;;;;;30.70;39.80;;;;;;5099845;28;981;-36
2022/06/19 05:42:05;;;;;;;;;;;30.70;39.70;;;;;;5099544;28;1905;-37
2022/06/19 05:44:32;;;;;;;;;;;30.80;39.90;;;;;;5099702;28;972;-37
2022/06/19 05:46:58;;;;;;;;;;;30.70;39.60;;;;;;5100056;28;1003;-37
2022/06/19 05:49:25;;;;;;;;;;;30.80;39.60;;;;;;5099383;28;923;-37
2022/06/19 05:51:51;;;;;;;;;;;30.70;39.10;;;;;;5099940;28;900;-38
2022/06/19 05:54:18;;;;;;;;;;;30.80;38.80;;;;;;5099377;28;1031;-38
2022/06/19 05:56:45;;;;;;;;;;;30.90;38.60;;;;;;5098784;28;935;-37
2022/06/19 05:59:13;;;;;;;;;;;30.80;38.80;;;;;;5100756;28;924;-37
2022/06/19 06:01:40;;;;;;;;;;;30.90;38.70;;;;;;5100360;28;1958;-37
2022/06/19 06:04:07;;;;;;;;;;;30.80;38.60;;;;;;5099177;28;943;-37
2022/06/19 06:06:33;;;;;;;;;;;30.80;38.40;;;;;;5099972;28;1082;-37
2022/06/19 06:09:00;;;;;;;;;;;30.70;38.60;;;;;;5099550;28;985;-37
2022/06/19 06:11:27;;;;;;;;;;;30.60;39.10;;;;;;5099737;28;1014;-39
2022/06/19 06:13:54;;;;;;;;;;;30.70;38.80;;;;;;5099617;28;1190;-37
2022/06/19 06:16:22;;;;;;;;;;;30.80;38.70;;;;;;5099314;28;903;-37
2022/06/19 06:18:49;;;;;;;;;;;30.80;38.60;;;;;;5099555;28;1098;-37
2022/06/19 06:21:17;;;;;;;;;;;30.70;38.30;;;;;;5099766;28;1902;-37
2022/06/19 06:23:44;;;;;;;;;;;30.70;38.30;;;;;;5099753;28;1026;-37
2022/06/19 06:26:12;;;;;;;;;;;30.70;38.10;;;;;;5100143;28;1011;-37
2022/06/19 06:28:41;;;;;;;;;;;30.80;37.80;;;;;;5099153;28;982;-37
2022/06/19 06:31:07;;;;;;;;;;;30.90;37.90;;;;;;5096938;28;993;-37
2022/06/19 06:33:35;;;;;;;;;;;30.90;38.30;;;;;;5098378;28;1030;-37
2022/06/19 06:36:02;;;;;;;;;;;31.00;38.30;;;;;;5097987;28;904;-37
2022/06/19 06:38:29;;;;;;;;;;;31.10;38.00;;;;;;5098190;28;897;-39
2022/06/19 06:40:56;;;;;;;;;;;31.10;37.70;;;;;;5095680;28;1902;-37
2022/06/19 06:43:23;;;;;;;;;;;31.20;37.90;;;;;;5096707;28;992;-37
2022/06/19 06:45:50;;;;;;;;;;;31.10;37.90;;;;;;5097002;28;944;-39
2022/06/19 06:48:17;;;;;;;;;;;31.20;37.80;;;;;;5095101;28;1013;-37
2022/06/19 06:50:45;;;;;;;;;;;31.20;37.90;;;;;;5096112;28;935;-37
2022/06/19 06:53:13;;;;;;;;;;;31.30;37.50;;;;;;5097112;28;1000;-37
2022/06/19 06:55:39;;;;;;;;;;;31.20;37.70;;;;;;5096234;28;1015;-37
2022/06/19 06:58:06;;;;;;;;;;;31.30;37.30;;;;;;5096739;28;910;-37
2022/06/19 07:00:33;;;;;;;;;;;31.30;37.30;;;;;;5095842;28;933;-37
2022/06/19 07:03:00;;;;;;;;;;;31.30;37.50;;;;;;5096004;28;1905;-37
2022/06/19 07:05:27;;;;;;;;;;;31.40;37.70;;;;;;5095826;28;996;-39
2022/06/19 07:07:56;;;;;;;;;;;31.30;37.30;;;;;;5096813;28;987;-37
2022/06/19 07:10:22;;;;;;;;;;;31.30;37.40;;;;;;5096933;28;975;-38
2022/06/19 07:12:49;;;;;;;;;;;31.20;37.40;;;;;;5096477;28;943;-38
2022/06/19 07:15:16;;;;;;;;;;;31.30;37.60;;;;;;5096206;28;951;-36
2022/06/19 07:17:43;;;;;;;;;;;31.30;37.50;;;;;;5096486;28;1001;-36
2022/06/19 07:20:10;;;;;;;;;;;31.20;37.50;;;;;;5095708;28;929;-36
2022/06/19 07:22:38;;;;;;;;;;;31.10;38.00;;;;;;5096255;28;1978;-37
2022/06/19 07:25:08;;;;;;;;;;;31.00;38.00;;;;;;5098007;28;1019;-37
2022/06/19 07:27:35;;;;;;;;;;;30.90;38.10;;;;;;5098422;28;995;-37
2022/06/19 07:30:02;;;;;;;;;;;30.90;38.50;;;;;;5096202;28;978;-37
2022/06/19 07:32:29;;;;;;;;;;;30.70;38.10;;;;;;5094955;28;1201;-37
2022/06/19 07:34:56;;;;;;;;;;;30.70;38.50;;;;;;5092239;28;1569;-37
2022/06/19 07:37:23;;;;;;;;;;;30.70;38.20;;;;;;5096176;28;1004;-37
2022/06/19 07:39:49;;;;;;;;;;;30.70;38.20;;;;;;5095804;28;996;-35
2022/06/19 07:42:18;;;;;;;;;;;30.70;38.30;;;;;;5095655;28;1942;-36
2022/06/19 07:44:44;;;;;;;;;;;30.80;38.60;;;;;;5095340;28;885;-35
2022/06/19 07:50:13;;;;;;;;;;;30.80;38.10;;;;;;5095156;28;652;-35
2022/06/19 07:52:41;;;;;;;;;;;30.80;38.00;;;;;;5096070;28;1008;-36
2022/06/19 07:55:09;;;;;;;;;;;30.80;38.10;;;;;;5095502;28;1011;-36
2022/06/19 07:57:38;;;;;;;;;;;30.80;37.80;;;;;;5094947;28;892;-38
2022/06/19 08:00:05;;;;;;;;;;;30.80;38.10;;;;;;5095661;28;939;-37
2022/06/19 08:02:32;;;;;;;;;;;30.90;37.60;;;;;;5094998;28;1898;-37
2022/06/19 08:04:59;;;;;;;;;;;30.90;37.70;;;;;;5095452;28;932;-36
2022/06/19 08:07:26;;;;;;;;;;;31.00;37.60;;;;;;5095305;28;976;-38
2022/06/19 08:09:52;;;;;;;;;;;31.00;37.00;;;;;;5095453;28;936;-37
2022/06/19 08:12:20;;;;;;;;;;;30.90;37.10;;;;;;5095264;28;994;-37
2022/06/19 08:14:49;;;;;;;;;;;30.90;37.10;;;;;;5095346;28;996;-36
2022/06/19 08:17:16;;;;;;;;;;;30.80;37.30;;;;;;5094783;28;944;-36
2022/06/19 08:19:43;;;;;;;;;;;30.90;37.10;;;;;;5096167;28;988;-36
2022/06/19 08:22:09;;;;;;;;;;;30.90;36.80;;;;;;5097589;28;1975;-36
2022/06/19 08:24:36;;;;;;;;;;;30.90;36.90;;;;;;5096628;28;961;-36
2022/06/19 08:27:03;;;;;;;;;;;30.80;37.00;;;;;;5095410;28;1015;-36
2022/06/19 08:29:30;;;;;;;;;;;30.80;37.10;;;;;;5094808;28;977;-36
2022/06/19 08:31:58;;;;;;;;;;;30.80;36.70;;;;;;5095668;28;953;-36
2022/06/19 08:34:26;;;;;;;;;;;30.80;36.40;;;;;;5094826;28;1221;-36
2022/06/19 08:36:54;;;;;;;;;;;30.80;36.90;;;;;;5096033;28;988;-36
2022/06/19 08:39:21;;;;;;;;;;;30.80;36.40;;;;;;5094311;28;917;-37
2022/06/19 08:41:58;;;;;;;;;;;30.90;36.50;;;;;;5094807;28;1971;-36
2022/06/19 08:44:41;;;;;;;;;;;30.90;36.40;;;;;;5094543;28;690;-36
2022/06/19 08:47:16;;;;;;;;;;;30.90;36.40;;;;;;5094807;28;1023;-36
2022/06/19 08:49:49;;;;;;;;;;;30.90;36.30;;;;;;5093861;28;945;-37
2022/06/19 08:52:21;;;;;;;;;;;31.00;36.70;;;;;;5094387;28;983;-36
2022/06/19 08:54:54;;;;;;;;;;;30.90;36.20;;;;;;5093674;28;1007;-36
2022/06/19 08:57:27;;;;;;;;;;;30.70;36.00;;;;;;5093494;28;1008;-36
2022/06/19 09:00:00;;;;;;;;;;;30.70;36.00;;;;;;5094252;28;992;-37
2022/06/19 09:02:34;;;;;;;;;;;30.60;36.80;;;;;;5094845;28;1895;-39
2022/06/19 09:07:56;;;;;;;;;;;30.60;36.80;;;;;;5095498;28;1011;-37
2022/06/19 09:10:30;;;;;;;;;;;30.50;37.00;;;;;;5093881;28;1024;-36
2022/06/19 09:13:03;;;;;;;;;;;30.50;36.90;;;;;;5096865;28;948;-39
2022/06/19 09:15:33;;;;;;;;;;;30.50;37.10;;;;;;5097023;28;980;-36
2022/06/19 09:18:02;;;;;;;;;;;30.50;37.10;;;;;;5094087;28;1001;-37
2022/06/19 09:20:35;;;;;;;;;;;30.50;36.90;;;;;;5093053;28;948;-36
2022/06/19 09:23:18;;;;;;;;;;;30.60;36.80;;;;;;5093108;28;1914;-37
2022/06/19 09:25:50;;;;;;;;;;;30.50;36.70;;;;;;5093981;28;1012;-36
2022/06/19 09:28:21;;;;;;;;;;;30.40;36.70;;;;;;5094330;28;951;-37
2022/06/19 09:30:50;;;;;;;;;;;30.40;36.40;;;;;;5094114;28;997;-36
2022/06/19 09:33:21;;;;;;;;;;;30.50;36.60;;;;;;5093870;28;1125;-36
2022/06/19 09:35:50;;;;;;;;;;;30.40;36.60;;;;;;5096194;28;1034;-37
2022/06/19 09:38:21;;;;;;;;;;;30.50;36.40;;;;;;5096027;28;1021;-38
2022/06/19 09:40:49;;;;;;;;;;;30.40;35.90;;;;;;5095726;28;1019;-36
2022/06/19 09:43:20;;;;;;;;;;;30.40;35.70;;;;;;5095832;28;2001;-36
2022/06/19 09:45:52;;;;;;;;;;;30.40;35.20;;;;;;5093664;28;960;-36
2022/06/19 09:48:24;;;;;;;;;;;30.30;35.30;;;;;;5096554;28;1023;-36
2022/06/19 09:50:52;;;;;;;;;;;30.40;35.80;;;;;;5096343;28;1004;-38
2022/06/19 09:53:21;;;;;;;;;;;30.40;35.60;;;;;;5095945;28;993;-42
2022/06/19 09:55:50;;;;;;;;;;;30.40;35.60;;;;;;5095957;28;925;-36
2022/06/19 09:58:20;;;;;;;;;;;30.40;35.70;;;;;;5095827;28;952;-36
2022/06/19 10:00:48;;;;;;;;;;;30.40;35.30;;;;;;5094505;28;1016;-38
2022/06/19 10:03:18;;;;;;;;;;;30.30;35.20;;;;;;5094741;28;1917;-35
2022/06/19 10:05:48;;;;;;;;;;;30.20;35.20;;;;;;5094697;28;1160;-37
2022/06/19 10:08:17;;;;;;;;;;;30.30;35.20;;;;;;5095530;28;1012;-36
2022/06/19 10:10:47;;;;;;;;;;;30.20;35.30;;;;;;5092455;28;1003;-36
2022/06/19 10:13:16;;;;;;;;;;;30.20;35.20;;;;;;5092481;28;1012;-38
2022/06/19 10:15:43;;;;;;;;;;;30.20;34.90;;;;;;5093150;28;1052;-36
2022/06/19 10:18:13;;;;;;;;;;;30.20;36.00;;;;;;5093488;28;960;-36
2022/06/19 10:20:46;;;;;;;;;;;30.10;34.50;;;;;;5091807;28;964;-36
2022/06/19 10:23:20;;;;;;;;;;;30.10;34.90;;;;;;5095320;28;1902;-36
2022/06/19 10:25:52;;;;;;;;;;;30.10;35.00;;;;;;5096538;28;981;-36
2022/06/19 10:28:23;;;;;;;;;;;30.00;34.90;;;;;;5096322;28;974;-37
2022/06/19 10:30:55;;;;;;;;;;;30.00;35.20;;;;;;5096428;28;1010;-37
2022/06/19 10:33:26;;;;;;;;;;;30.10;35.40;;;;;;5096648;28;1020;-38
2022/06/19 10:35:56;;;;;;;;;;;30.20;35.30;;;;;;5096618;28;972;-41
2022/06/19 10:38:51;;;;;;;;;;;30.20;34.90;;;;;;5096100;28;1008;-37
2022/06/19 10:44:08;;;;;;;;;;;30.20;35.00;;;;;;5096510;28;2140;-35
2022/06/19 10:46:35;;;;;;;;;;;30.20;35.20;;;;;;5094389;28;924;-36
2022/06/19 10:49:04;;;;;;;;;;;30.30;35.40;;;;;;5097745;28;939;-35
2022/06/19 10:51:36;;;;;;;;;;;30.20;35.40;;;;;;5095908;28;1021;-36
2022/06/19 10:54:21;;;;;;;;;;;30.30;35.60;;;;;;5096457;28;1011;-36
2022/06/19 10:56:50;;;;;;;;;;;30.30;35.50;;;;;;5095404;28;1035;-37
2022/06/19 10:59:18;;;;;;;;;;;30.30;35.70;;;;;;5095022;28;940;-37
2022/06/19 11:04:35;;;;;;;;;;;30.30;35.90;;;;;;5095994;28;630;-35
2022/06/19 11:07:04;;;;;;;;;;;30.30;35.90;;;;;;5094835;28;1024;-37
2022/06/19 11:09:36;;;;;;;;;;;30.40;36.10;;;;;;5095070;28;1016;-37
2022/06/19 11:12:06;;;;;;;;;;;30.40;36.20;;;;;;5098022;28;1449;-37
2022/06/19 11:14:36;;;;;;;;;;;30.40;36.40;;;;;;5099500;28;1215;-42
2022/06/19 11:17:05;;;;;;;;;;;30.50;35.00;;;;;;5098466;28;989;-38
2022/06/19 11:19:33;;;;;;;;;;;30.50;34.80;;;;;;5097172;28;892;-41
2022/06/19 11:22:00;;;;;;;;;;;30.40;34.60;;;;;;5096671;28;1026;-37
2022/06/19 11:24:28;;;;;;;;;;;30.40;34.80;;;;;;5097687;28;1901;-40
2022/06/19 11:26:57;;;;;;;;;;;30.50;35.70;;;;;;5097562;28;990;-40
2022/06/19 11:29:25;;;;;;;;;;;30.40;34.60;;;;;;5097692;28;936;-37
2022/06/19 11:32:04;;;;;;;;;;;30.30;34.60;;;;;;5097574;28;920;-39
2022/06/19 11:34:47;;;;;;;;;;;30.20;34.20;;;;;;5096869;28;1308;-39
2022/06/19 11:37:24;;;;;;;;;;;30.20;34.40;;;;;;5096072;28;1017;-38
2022/06/19 11:39:52;;;;;;;;;;;30.20;34.90;;;;;;5095729;28;1011;-39
2022/06/19 11:42:31;;;;;;;;;;;30.20;34.90;;;;;;5094467;28;1902;-39
2022/06/19 11:44:59;;;;;;;;;;;30.20;35.10;;;;;;5094247;28;1086;-38
2022/06/19 11:47:28;;;;;;;;;;;30.00;35.30;;;;;;5092964;28;861;-45
2022/06/19 11:50:10;;;;;;;;;;;30.10;35.40;;;;;;5094672;28;884;-48
2022/06/19 11:52:37;;;;;;;;;;;30.10;35.00;;;;;;5094206;28;1011;-48
2022/06/19 11:55:04;;;;;;;;;;;30.20;35.00;;;;;;5094274;28;1016;-47
2022/06/19 11:57:34;;;;;;;;;;;30.10;34.60;;;;;;5094640;28;948;-48
2022/06/19 12:00:02;;;;;;;;;;;30.00;34.70;;;;;;5094134;28;877;-48
2022/06/19 12:02:30;;;;;;;;;;;29.90;35.00;;;;;;5096224;28;1905;-48
2022/06/19 12:04:58;;;;;;;;;;;29.80;35.00;;;;;;5095839;28;981;-48
2022/06/19 12:07:26;;;;;;;;;;;29.80;34.80;;;;;;5095531;28;1016;-48
2022/06/19 12:09:55;;;;;;;;;;;29.80;34.80;;;;;;5095400;28;881;-48
2022/06/19 12:12:22;;;;;;;;;;;29.80;35.10;;;;;;5096126;28;972;-48
2022/06/19 12:14:56;;;;;;;;;;;29.70;34.90;;;;;;5095839;28;987;-48
2022/06/19 12:17:25;;;;;;;;;;;29.70;34.90;;;;;;5095716;28;1013;-48
2022/06/19 12:19:53;;;;;;;;;;;29.70;34.70;;;;;;5096887;28;949;-49
2022/06/19 12:22:22;;;;;;;;;;;29.70;34.70;;;;;;5096979;28;944;-48
2022/06/19 12:24:51;;;;;;;;;;;29.80;34.90;;;;;;5095496;28;937;-51
2022/06/19 12:27:20;;;;;;;;;;;29.80;34.60;;;;;;5093333;28;1003;-48
2022/06/19 12:29:48;;;;;;;;;;;29.70;34.30;;;;;;5094317;28;936;-48
2022/06/19 12:32:20;;;;;;;;;;;29.70;34.30;;;;;;5092683;28;1016;-48
2022/06/19 12:34:49;;;;;;;;;;;29.70;34.50;;;;;;5094068;28;1174;-48
2022/06/19 12:37:17;;;;;;;;;;;29.70;34.60;;;;;;5094673;28;976;-48
2022/06/19 12:39:44;;;;;;;;;;;29.70;34.80;;;;;;5094516;28;1034;-48
2022/06/19 12:42:14;;;;;;;;;;;29.70;34.60;;;;;;5093446;28;1012;-48
2022/06/19 12:44:54;;;;;;;;;;;29.60;34.30;;;;;;5094048;28;1977;-48
2022/06/19 12:47:24;;;;;;;;;;;29.50;34.60;;;;;;5091698;28;1044;-48
2022/06/19 12:50:07;;;;;;;;;;;29.50;34.50;;;;;;5094136;28;1061;-48
2022/06/19 12:52:42;;;;;;;;;;;29.50;34.70;;;;;;5093000;28;1652;-33
2022/06/19 12:55:19;;;;;;;;;;;29.40;34.60;;;;;;5094101;28;988;-41
2022/06/19 12:57:54;;;;;;;;;;;29.40;34.40;;;;;;5093630;28;1018;-40
2022/06/19 13:00:26;;;;;;;;;;;29.30;34.90;;;;;;5093774;28;939;-41
2022/06/19 13:03:02;;;;;;;;;;;29.30;34.70;;;;;;5093762;28;1901;-40
2022/06/19 13:05:36;;;;;;;;;;;29.20;34.60;;;;;;5093469;28;896;-40
2022/06/19 13:08:07;;;;;;;;;;;29.10;35.00;;;;;;5093917;28;1068;-40
2022/06/19 13:10:51;;;;;;;;;;;29.20;35.50;;;;;;5092972;28;1039;-38
2022/06/19 13:13:34;;;;;;;;;;;29.20;35.50;;;;;;5093420;28;1175;-38
2022/06/19 13:16:03;;;;;;;;;;;29.20;35.50;;;;;;5093148;28;1590;-39
2022/06/19 13:18:40;;;;;;;;;;;29.20;35.30;;;;;;5093338;28;975;-34
2022/06/19 13:21:10;;;;;;;;;;;29.30;35.40;;;;;;5092525;28;947;-35
2022/06/19 13:23:41;;;;;;;;;;;29.30;35.20;;;;;;5092273;28;1985;-35
2022/06/19 13:27:10;;;;;;;;;;;29.30;35.40;;;;;;5092630;28;861;-34
2022/06/19 13:29:05;;;;;;;;;;;29.30;35.70;;;;;;5092221;28;2091;-35
2022/06/19 13:31:34;;;;;;;;;;;29.30;35.70;;;;;;5092682;28;979;-35
2022/06/19 13:34:11;;;;;;;;;;;29.30;35.50;;;;;;5093687;28;1316;-43
2022/06/19 13:36:42;;;;;;;;;;;29.40;35.60;;;;;;5092098;28;1330;-45
2022/06/19 13:39:19;;;;;;;;;;;29.40;35.70;;;;;;5093526;28;1966;-45
2022/06/19 13:41:52;;;;;;;;;;;29.40;35.40;;;;;;5091820;28;1004;-51
2022/06/19 13:44:29;;;;;;;;;;;29.40;35.50;;;;;;5094239;28;1971;-43
2022/06/19 13:46:58;;;;;;;;;;;29.50;35.60;;;;;;5094052;28;1034;-43
2022/06/19 13:49:29;;;;;;;;;;;29.50;35.50;;;;;;5094747;28;1086;-44
2022/06/19 13:52:02;;;;;;;;;;;29.50;35.40;;;;;;5094452;28;1010;-43
2022/06/19 13:54:33;;;;;;;;;;;29.50;35.60;;;;;;5095454;28;960;-46
2022/06/19 13:57:02;;;;;;;;;;;29.60;35.50;;;;;;5095946;28;912;-45
2022/06/19 13:59:44;;;;;;;;;;;29.60;35.60;;;;;;5099186;28;965;-45
2022/06/19 14:02:16;;;;;;;;;;;29.60;35.90;;;;;;5099388;28;1018;-43
2022/06/19 14:04:51;;;;;;;;;;;29.60;35.80;;;;;;5101302;28;1910;-44
2022/06/19 14:07:26;;;;;;;;;;;29.70;35.60;;;;;;5100832;28;1020;-43
2022/06/19 14:09:56;;;;;;;;;;;29.60;35.70;;;;;;5100519;28;1117;-45
2022/06/19 14:12:25;;;;;;;;;;;29.70;35.80;;;;;;5098297;28;943;-44
2022/06/19 14:14:55;;;;;;;;;;;29.70;35.60;;;;;;5095386;28;893;-44
2022/06/19 14:17:27;;;;;;;;;;;29.70;35.60;;;;;;5095255;28;1011;-44
2022/06/19 14:20:00;;;;;;;;;;;29.70;35.80;;;;;;5095137;28;992;-43
2022/06/19 14:22:30;;;;;;;;;;;29.70;35.90;;;;;;5094709;28;1012;-44
2022/06/19 14:25:02;;;;;;;;;;;29.70;36.10;;;;;;5095460;28;1988;-45
2022/06/19 14:27:39;;;;;;;;;;;29.80;36.00;;;;;;5095037;28;951;-44
2022/06/19 14:30:09;;;;;;;;;;;29.80;36.20;;;;;;5093428;28;947;-46
2022/06/19 14:32:48;;;;;;;;;;;29.90;36.40;;;;;;5093282;28;1075;-43
2022/06/19 14:35:27;;;;;;;;;;;29.90;36.40;;;;;;5094251;28;924;-44
2022/06/19 14:37:56;;;;;;;;;;;29.80;36.40;;;;;;5094516;28;909;-45
2022/06/19 14:40:41;;;;;;;;;;;29.80;36.50;;;;;;5094800;28;957;-43
2022/06/19 14:43:28;;;;;;;;;;;29.90;36.90;;;;;;5095720;28;2009;-44
2022/06/19 14:45:58;;;;;;;;;;;29.90;36.60;;;;;;5094309;28;964;-43
2022/06/19 14:48:33;;;;;;;;;;;29.90;36.70;;;;;;5095259;28;876;-43
2022/06/19 14:51:06;;;;;;;;;;;29.80;36.40;;;;;;5095728;28;1035;-43
2022/06/19 14:53:48;;;;;;;;;;;29.80;36.60;;;;;;5094721;28;1030;-44
2022/06/19 14:56:38;;;;;;;;;;;29.80;36.40;;;;;;5094301;28;939;-43
2022/06/19 14:59:13;;;;;;;;;;;29.80;36.60;;;;;;5094540;28;944;-43
2022/06/19 15:01:42;;;;;;;;;;;29.90;36.70;;;;;;5094549;28;1013;-43
2022/06/19 15:04:14;;;;;;;;;;;30.00;36.70;;;;;;5094284;28;1985;-43